Baileyville, IL

05:17 AM CDT del 23 Maggio 2015 (GMT -0500)
Albertus | | Change Station
CLOSE
Current Station
Aeroporto
Location: Freeport,
Altitudine: 860 ft
Stazioni meteo nelle vicinanze

Alt. 860 ft 42.25 °N, 89.58 °W | Updated 22 minutes ago

Parzialmente nuvoloso
Parzialmente nuvoloso
47 °F
Sembra 47 °F
N
0
Vento Variabile Vento da Nord

Oggi
Massima -- | Minima -- °F
--% Possibilità di precip.
Ieri
Massima -- | Minima -- °F
Precip. -- in
5:30 AM 8:20 PM
Luna crescente, 28% visible
Pressione 30.31 in
Visibilità 10.0 miglia
Nuvole Sereno
Punto di rugiada 35 °F
Umidità 64%
Piovosità 0.00 in
Spessore del manto nevoso Non disponibile.
Raggi UV 0 fuori da 12
Polline 9.10 fuori da 12
Qualità dell'aria Non disponibile.
Flu Activity Sporadic
METAR KFEP 230955Z AUTO 00000KT 10SM CLR 08/02 A3031 RMK AO2 T00810016

More Conditions Fewer Conditions

Pressione 30.31 in
Visibilità 10.0 miglia
Nuvole Sereno
Punto di rugiada 35 °F
Umidità 64%
Piovosità 0.00 in
Spessore del manto nevoso Non disponibile.
Raggi UV 0 fuori da 12
Polline 9.10 fuori da 12
Qualità dell'aria Non disponibile.
Flu Activity Sporadic
METAR KFEP 230955Z AUTO 00000KT 10SM CLR 08/02 A3031 RMK AO2 T00810016

More Conditions Fewer Conditions

10-Day Weather Forecast

Almanac

Astronomia

May. 23, 2015 Alba Tramonto
Ora attuale
Crepuscolo civile
Crepuscolo nautico
Crepuscolo astronomico
Luna
Estensione della luce visibile
Lunghezza del giorno
Tomorrow will be .
, % of the Moon is Illuminated

Gli estremi di oggi

State Highs State Lows

Community

WunderPhotos

Upload Photos

1,823,406 foto caricate!

WunderBlogs® & News

Nearby

Qualità dell'aria

  Qualità dell'aria Indice AQ Inquinante
Not available.

Profondità neve

Stazione Profondità Altitudine

Attività sismica

Città  Distanza Mag. Data & Ora
Minimo Magnitudo Mostrato è 2.5.

Temperature delle acque costiere

Località Temperatura

Stations

Stazioni meteo nelle vicinanze

Ubicazione della stazione Temp. Raffreddamento del vento Punto di rugiada Umidità Vento Precip. Alt. Aggiornato Tipo